Durango, Texas
Current Conditions -  °F | °C
As of 4:55 PM on Monday 22 Dec 2014 (Local Time) from KTPL Reporting Station
Clear Clear  
Wind Chill: 66°   Ceiling: Unl
Heat Index: 66°   Visibility: 10mi
Dew Point: 37°   Wind: 7mph
Humidity: 35%   Direction: 310°NW
Pressure: 29.61"   Gusts: NA
Location:  31.1912°N, 97.0719°W
Report Text: KTPL 222255Z AUTO 31006KT 10SM CLR 19/03 A2961 RMK AO1
Loading
Personal Weather Stations






























Interactive Weather Map New forecast layout! Learn more

10-Day Weather Forecast

Advertisements
Track Severe Weather on mobile